sensor_id;sensor_type;location;lat;lon;timestamp;P1;durP1;ratioP1;P2;durP2;ratioP2
6809;SDS011;3443;48.812;9.112;2022-11-11T00:01:25;1.67;;;1.30;;
6809;SDS011;3443;48.812;9.112;2022-11-11T00:03:44;1.73;;;1.27;;
6809;SDS011;3443;48.812;9.112;2022-11-11T00:06:13;3.75;;;1.23;;
6809;SDS011;3443;48.812;9.112;2022-11-11T00:08:40;1.52;;;1.45;;
6809;SDS011;3443;48.812;9.112;2022-11-11T00:11:07;3.58;;;1.48;;
6809;SDS011;3443;48.812;9.112;2022-11-11T00:13:33;3.58;;;1.70;;
6809;SDS011;3443;48.812;9.112;2022-11-11T00:16:06;1.90;;;1.40;;
6809;SDS011;3443;48.812;9.112;2022-11-11T00:18:34;2.33;;;1.52;;
6809;SDS011;3443;48.812;9.112;2022-11-11T00:21:19;2.03;;;1.45;;
6809;SDS011;3443;48.812;9.112;2022-11-11T00:24:21;1.52;;;1.33;;
6809;SDS011;3443;48.812;9.112;2022-11-11T00:27:08;1.85;;;1.27;;
6809;SDS011;3443;48.812;9.112;2022-11-11T00:29:34;2.28;;;1.33;;
6809;SDS011;3443;48.812;9.112;2022-11-11T00:32:01;1.45;;;1.35;;
6809;SDS011;3443;48.812;9.112;2022-11-11T00:34:45;1.75;;;1.30;;
6809;SDS011;3443;48.812;9.112;2022-11-11T00:37:30;2.30;;;1.20;;
6809;SDS011;3443;48.812;9.112;2022-11-11T00:39:56;1.65;;;1.25;;
6809;SDS011;3443;48.812;9.112;2022-11-11T00:42:22;4.93;;;1.35;;
6809;SDS011;3443;48.812;9.112;2022-11-11T00:44:48;3.88;;;1.15;;
6809;SDS011;3443;48.812;9.112;2022-11-11T00:47:13;1.65;;;1.20;;
6809;SDS011;3443;48.812;9.112;2022-11-11T00:49:57;2.03;;;1.20;;
6809;SDS011;3443;48.812;9.112;2022-11-11T00:52:43;2.72;;;1.48;;
6809;SDS011;3443;48.812;9.112;2022-11-11T00:55:10;1.10;;;1.05;;
6809;SDS011;3443;48.812;9.112;2022-11-11T00:57:36;1.27;;;1.15;;
6809;SDS011;3443;48.812;9.112;2022-11-11T01:00:02;1.73;;;1.40;;
6809;SDS011;3443;48.812;9.112;2022-11-11T01:02:28;1.13;;;1.00;;
6809;SDS011;3443;48.812;9.112;2022-11-11T01:04:54;4.25;;;1.40;;
6809;SDS011;3443;48.812;9.112;2022-11-11T01:07:19;2.15;;;1.23;;
6809;SDS011;3443;48.812;9.112;2022-11-11T01:09:45;2.67;;;1.15;;
6809;SDS011;3443;48.812;9.112;2022-11-11T01:12:10;1.52;;;0.93;;
6809;SDS011;3443;48.812;9.112;2022-11-11T01:14:36;1.00;;;1.00;;
6809;SDS011;3443;48.812;9.112;2022-11-11T01:17:01;2.65;;;1.20;;
6809;SDS011;3443;48.812;9.112;2022-11-11T01:19:28;1.13;;;1.13;;
6809;SDS011;3443;48.812;9.112;2022-11-11T01:21:54;1.95;;;1.40;;
6809;SDS011;3443;48.812;9.112;2022-11-11T01:24:20;1.75;;;1.10;;
6809;SDS011;3443;48.812;9.112;2022-11-11T01:26:45;1.30;;;1.13;;
6809;SDS011;3443;48.812;9.112;2022-11-11T01:29:11;1.98;;;1.20;;
6809;SDS011;3443;48.812;9.112;2022-11-11T01:31:36;2.25;;;1.13;;
6809;SDS011;3443;48.812;9.112;2022-11-11T01:34:02;1.40;;;1.33;;
6809;SDS011;3443;48.812;9.112;2022-11-11T01:36:27;2.53;;;1.30;;
6809;SDS011;3443;48.812;9.112;2022-11-11T01:38:54;2.97;;;1.30;;
6809;SDS011;3443;48.812;9.112;2022-11-11T01:41:22;1.60;;;1.48;;
6809;SDS011;3443;48.812;9.112;2022-11-11T01:46:57;1.50;;;1.40;;
6809;SDS011;3443;48.812;9.112;2022-11-11T01:49:36;1.92;;;1.55;;
6809;SDS011;3443;48.812;9.112;2022-11-11T01:52:25;1.40;;;1.30;;
6809;SDS011;3443;48.812;9.112;2022-11-11T01:57:33;1.52;;;1.20;;
6809;SDS011;3443;48.812;9.112;2022-11-11T02:00:09;1.15;;;1.10;;
6809;SDS011;3443;48.812;9.112;2022-11-11T02:02:40;1.17;;;1.13;;
6809;SDS011;3443;48.812;9.112;2022-11-11T02:05:09;1.58;;;1.48;;
6809;SDS011;3443;48.812;9.112;2022-11-11T02:07:55;1.60;;;1.10;;
6809;SDS011;3443;48.812;9.112;2022-11-11T02:10:24;1.27;;;1.23;;
6809;SDS011;3443;48.812;9.112;2022-11-11T02:12:52;1.52;;;1.42;;
6809;SDS011;3443;48.812;9.112;2022-11-11T02:15:36;1.35;;;1.25;;
6809;SDS011;3443;48.812;9.112;2022-11-11T02:18:03;1.20;;;1.10;;
6809;SDS011;3443;48.812;9.112;2022-11-11T02:20:29;3.47;;;1.20;;
6809;SDS011;3443;48.812;9.112;2022-11-11T02:23:01;1.65;;;0.90;;
6809;SDS011;3443;48.812;9.112;2022-11-11T02:25:49;1.52;;;1.40;;
6809;SDS011;3443;48.812;9.112;2022-11-11T02:28:17;1.55;;;1.20;;
6809;SDS011;3443;48.812;9.112;2022-11-11T02:30:45;2.05;;;0.90;;
6809;SDS011;3443;48.812;9.112;2022-11-11T02:33:10;0.77;;;0.77;;
6809;SDS011;3443;48.812;9.112;2022-11-11T02:35:37;2.30;;;1.00;;
6809;SDS011;3443;48.812;9.112;2022-11-11T02:38:07;1.15;;;1.05;;
6809;SDS011;3443;48.812;9.112;2022-11-11T02:40:40;4.28;;;1.10;;
6809;SDS011;3443;48.812;9.112;2022-11-11T02:43:25;1.23;;;1.00;;
6809;SDS011;3443;48.812;9.112;2022-11-11T02:45:51;1.13;;;1.05;;
6809;SDS011;3443;48.812;9.112;2022-11-11T02:48:17;1.30;;;1.30;;
6809;SDS011;3443;48.812;9.112;2022-11-11T02:50:43;2.85;;;0.82;;
6809;SDS011;3443;48.812;9.112;2022-11-11T02:53:08;1.02;;;1.00;;
6809;SDS011;3443;48.812;9.112;2022-11-11T02:55:34;3.55;;;1.40;;
6809;SDS011;3443;48.812;9.112;2022-11-11T02:57:59;2.67;;;1.20;;
6809;SDS011;3443;48.812;9.112;2022-11-11T03:00:25;1.58;;;1.48;;
6809;SDS011;3443;48.812;9.112;2022-11-11T03:02:51;2.25;;;1.60;;
6809;SDS011;3443;48.812;9.112;2022-11-11T03:05:17;1.30;;;1.23;;
6809;SDS011;3443;48.812;9.112;2022-11-11T03:07:42;1.40;;;1.27;;
6809;SDS011;3443;48.812;9.112;2022-11-11T03:10:08;2.17;;;1.50;;
6809;SDS011;3443;48.812;9.112;2022-11-11T03:12:33;1.13;;;1.08;;
6809;SDS011;3443;48.812;9.112;2022-11-11T03:14:59;1.75;;;1.35;;
6809;SDS011;3443;48.812;9.112;2022-11-11T03:17:25;1.65;;;1.42;;
6809;SDS011;3443;48.812;9.112;2022-11-11T03:25:25;2.58;;;2.38;;
6809;SDS011;3443;48.812;9.112;2022-11-11T03:28:14;2.28;;;1.92;;
6809;SDS011;3443;48.812;9.112;2022-11-11T03:30:44;2.22;;;2.00;;
6809;SDS011;3443;48.812;9.112;2022-11-11T03:33:11;3.53;;;2.35;;
6809;SDS011;3443;48.812;9.112;2022-11-11T03:35:37;2.97;;;2.15;;
6809;SDS011;3443;48.812;9.112;2022-11-11T03:38:04;2.22;;;1.77;;
6809;SDS011;3443;48.812;9.112;2022-11-11T03:40:46;3.08;;;1.90;;
6809;SDS011;3443;48.812;9.112;2022-11-11T03:43:14;2.67;;;1.85;;
6809;SDS011;3443;48.812;9.112;2022-11-11T03:45:41;1.85;;;1.75;;
6809;SDS011;3443;48.812;9.112;2022-11-11T03:48:08;1.40;;;1.40;;
6809;SDS011;3443;48.812;9.112;2022-11-11T03:50:33;2.30;;;2.10;;
6809;SDS011;3443;48.812;9.112;2022-11-11T03:52:59;5.10;;;1.60;;
6809;SDS011;3443;48.812;9.112;2022-11-11T03:55:25;1.45;;;1.38;;
6809;SDS011;3443;48.812;9.112;2022-11-11T03:57:51;1.30;;;1.30;;
6809;SDS011;3443;48.812;9.112;2022-11-11T04:00:19;1.45;;;1.35;;
6809;SDS011;3443;48.812;9.112;2022-11-11T04:02:47;1.50;;;1.40;;
6809;SDS011;3443;48.812;9.112;2022-11-11T04:05:34;1.75;;;1.30;;
6809;SDS011;3443;48.812;9.112;2022-11-11T04:08:19;1.75;;;1.55;;
6809;SDS011;3443;48.812;9.112;2022-11-11T04:11:08;3.50;;;1.77;;
6809;SDS011;3443;48.812;9.112;2022-11-11T04:13:36;1.80;;;1.70;;
6809;SDS011;3443;48.812;9.112;2022-11-11T04:16:22;1.67;;;1.58;;
6809;SDS011;3443;48.812;9.112;2022-11-11T04:18:48;1.70;;;1.60;;
6809;SDS011;3443;48.812;9.112;2022-11-11T04:21:32;1.70;;;1.60;;
6809;SDS011;3443;48.812;9.112;2022-11-11T04:24:13;2.28;;;1.80;;
6809;SDS011;3443;48.812;9.112;2022-11-11T04:27:06;2.10;;;1.90;;
6809;SDS011;3443;48.812;9.112;2022-11-11T04:29:43;2.80;;;1.92;;
6809;SDS011;3443;48.812;9.112;2022-11-11T04:32:14;2.22;;;1.95;;
6809;SDS011;3443;48.812;9.112;2022-11-11T04:35:10;2.28;;;1.92;;
6809;SDS011;3443;48.812;9.112;2022-11-11T04:37:44;2.17;;;2.08;;
6809;SDS011;3443;48.812;9.112;2022-11-11T04:40:13;2.80;;;2.08;;
6809;SDS011;3443;48.812;9.112;2022-11-11T04:42:58;2.95;;;1.90;;
6809;SDS011;3443;48.812;9.112;2022-11-11T04:45:24;3.72;;;2.45;;
6809;SDS011;3443;48.812;9.112;2022-11-11T04:48:08;3.13;;;2.28;;
6809;SDS011;3443;48.812;9.112;2022-11-11T04:50:37;2.67;;;2.50;;
6809;SDS011;3443;48.812;9.112;2022-11-11T04:53:05;2.72;;;2.53;;
6809;SDS011;3443;48.812;9.112;2022-11-11T04:55:31;2.40;;;2.30;;
6809;SDS011;3443;48.812;9.112;2022-11-11T04:58:17;2.67;;;2.53;;
6809;SDS011;3443;48.812;9.112;2022-11-11T05:00:44;3.17;;;2.80;;
6809;SDS011;3443;48.812;9.112;2022-11-11T05:03:13;3.45;;;3.10;;
6809;SDS011;3443;48.812;9.112;2022-11-11T05:08:34;3.50;;;2.65;;
6809;SDS011;3443;48.812;9.112;2022-11-11T05:11:20;2.78;;;2.58;;
6809;SDS011;3443;48.812;9.112;2022-11-11T05:13:57;4.88;;;2.55;;
6809;SDS011;3443;48.812;9.112;2022-11-11T05:16:43;3.17;;;2.90;;
6809;SDS011;3443;48.812;9.112;2022-11-11T05:19:32;3.08;;;2.88;;
6809;SDS011;3443;48.812;9.112;2022-11-11T05:24:48;3.67;;;2.70;;
6809;SDS011;3443;48.812;9.112;2022-11-11T05:27:32;3.75;;;3.45;;
6809;SDS011;3443;48.812;9.112;2022-11-11T05:29:58;3.22;;;3.03;;
6809;SDS011;3443;48.812;9.112;2022-11-11T05:32:24;4.53;;;3.38;;
6809;SDS011;3443;48.812;9.112;2022-11-11T05:34:50;3.70;;;2.97;;
6809;SDS011;3443;48.812;9.112;2022-11-11T05:37:16;3.92;;;3.15;;
6809;SDS011;3443;48.812;9.112;2022-11-11T05:39:42;3.47;;;3.03;;
6809;SDS011;3443;48.812;9.112;2022-11-11T05:42:08;3.30;;;3.10;;
6809;SDS011;3443;48.812;9.112;2022-11-11T05:44:35;3.65;;;3.35;;
6809;SDS011;3443;48.812;9.112;2022-11-11T05:47:00;3.70;;;3.47;;
6809;SDS011;3443;48.812;9.112;2022-11-11T05:49:26;4.30;;;3.30;;
6809;SDS011;3443;48.812;9.112;2022-11-11T05:51:52;3.25;;;3.05;;
6809;SDS011;3443;48.812;9.112;2022-11-11T05:54:20;3.28;;;3.00;;
6809;SDS011;3443;48.812;9.112;2022-11-11T05:56:46;3.13;;;2.90;;
6809;SDS011;3443;48.812;9.112;2022-11-11T05:59:11;3.90;;;3.63;;
6809;SDS011;3443;48.812;9.112;2022-11-11T06:01:37;4.00;;;3.50;;
6809;SDS011;3443;48.812;9.112;2022-11-11T06:04:04;3.00;;;2.80;;
6809;SDS011;3443;48.812;9.112;2022-11-11T06:06:30;3.47;;;3.15;;
6809;SDS011;3443;48.812;9.112;2022-11-11T06:08:57;3.35;;;3.15;;
6809;SDS011;3443;48.812;9.112;2022-11-11T06:11:22;5.85;;;3.13;;
6809;SDS011;3443;48.812;9.112;2022-11-11T06:13:48;4.05;;;2.72;;
6809;SDS011;3443;48.812;9.112;2022-11-11T06:16:14;4.00;;;3.30;;
6809;SDS011;3443;48.812;9.112;2022-11-11T06:18:40;3.80;;;3.10;;
6809;SDS011;3443;48.812;9.112;2022-11-11T06:21:06;5.38;;;3.17;;
6809;SDS011;3443;48.812;9.112;2022-11-11T06:23:31;3.00;;;2.75;;
6809;SDS011;3443;48.812;9.112;2022-11-11T06:25:57;3.78;;;2.80;;
6809;SDS011;3443;48.812;9.112;2022-11-11T06:28:46;3.83;;;2.42;;
6809;SDS011;3443;48.812;9.112;2022-11-11T06:31:20;2.70;;;2.50;;
6809;SDS011;3443;48.812;9.112;2022-11-11T06:33:47;2.55;;;2.38;;
6809;SDS011;3443;48.812;9.112;2022-11-11T06:36:13;2.40;;;2.20;;
6809;SDS011;3443;48.812;9.112;2022-11-11T06:38:41;2.50;;;2.40;;
6809;SDS011;3443;48.812;9.112;2022-11-11T06:41:08;3.35;;;2.30;;
6809;SDS011;3443;48.812;9.112;2022-11-11T06:43:36;2.40;;;2.30;;
6809;SDS011;3443;48.812;9.112;2022-11-11T06:46:02;2.90;;;2.60;;
6809;SDS011;3443;48.812;9.112;2022-11-11T06:48:28;7.87;;;3.73;;
6809;SDS011;3443;48.812;9.112;2022-11-11T06:50:54;2.45;;;2.30;;
6809;SDS011;3443;48.812;9.112;2022-11-11T06:53:26;2.85;;;2.53;;
6809;SDS011;3443;48.812;9.112;2022-11-11T06:55:53;2.37;;;2.20;;
6809;SDS011;3443;48.812;9.112;2022-11-11T06:58:19;2.33;;;2.22;;
6809;SDS011;3443;48.812;9.112;2022-11-11T07:00:45;2.72;;;2.30;;
6809;SDS011;3443;48.812;9.112;2022-11-11T07:03:13;2.20;;;2.10;;
6809;SDS011;3443;48.812;9.112;2022-11-11T07:05:40;5.03;;;2.03;;
6809;SDS011;3443;48.812;9.112;2022-11-11T07:08:08;2.00;;;1.80;;
6809;SDS011;3443;48.812;9.112;2022-11-11T07:10:39;2.25;;;2.10;;
6809;SDS011;3443;48.812;9.112;2022-11-11T07:13:07;3.38;;;3.08;;
6809;SDS011;3443;48.812;9.112;2022-11-11T07:15:33;3.13;;;2.92;;
6809;SDS011;3443;48.812;9.112;2022-11-11T07:17:59;3.28;;;2.97;;
6809;SDS011;3443;48.812;9.112;2022-11-11T07:20:25;3.78;;;2.95;;
6809;SDS011;3443;48.812;9.112;2022-11-11T07:22:51;6.18;;;3.25;;
6809;SDS011;3443;48.812;9.112;2022-11-11T07:25:16;2.80;;;2.58;;
6809;SDS011;3443;48.812;9.112;2022-11-11T07:27:42;3.35;;;3.05;;
6809;SDS011;3443;48.812;9.112;2022-11-11T07:30:08;3.75;;;2.72;;
6809;SDS011;3443;48.812;9.112;2022-11-11T07:32:36;3.50;;;3.20;;
6809;SDS011;3443;48.812;9.112;2022-11-11T07:35:09;2.80;;;2.65;;
6809;SDS011;3443;48.812;9.112;2022-11-11T07:37:35;3.33;;;3.10;;
6809;SDS011;3443;48.812;9.112;2022-11-11T07:40:00;3.00;;;2.80;;
6809;SDS011;3443;48.812;9.112;2022-11-11T07:42:26;3.83;;;2.95;;
6809;SDS011;3443;48.812;9.112;2022-11-11T07:44:51;3.85;;;2.90;;
6809;SDS011;3443;48.812;9.112;2022-11-11T07:47:17;8.13;;;3.42;;
6809;SDS011;3443;48.812;9.112;2022-11-11T07:49:44;4.40;;;3.20;;
6809;SDS011;3443;48.812;9.112;2022-11-11T07:52:09;3.22;;;3.03;;
6809;SDS011;3443;48.812;9.112;2022-11-11T07:54:35;3.15;;;2.85;;
6809;SDS011;3443;48.812;9.112;2022-11-11T07:57:00;4.13;;;3.40;;
6809;SDS011;3443;48.812;9.112;2022-11-11T07:59:26;4.28;;;3.00;;
6809;SDS011;3443;48.812;9.112;2022-11-11T08:01:51;5.10;;;4.03;;
6809;SDS011;3443;48.812;9.112;2022-11-11T08:04:17;4.45;;;3.75;;
6809;SDS011;3443;48.812;9.112;2022-11-11T08:06:42;5.93;;;4.90;;
6809;SDS011;3443;48.812;9.112;2022-11-11T08:09:08;17.00;;;10.90;;
6809;SDS011;3443;48.812;9.112;2022-11-11T08:11:33;49.42;;;25.40;;
6809;SDS011;3443;48.812;9.112;2022-11-11T08:14:18;33.20;;;19.00;;
6809;SDS011;3443;48.812;9.112;2022-11-11T08:16:43;16.77;;;9.70;;
6809;SDS011;3443;48.812;9.112;2022-11-11T08:19:09;6.80;;;5.18;;
6809;SDS011;3443;48.812;9.112;2022-11-11T08:21:34;10.30;;;6.18;;
6809;SDS011;3443;48.812;9.112;2022-11-11T08:24:00;9.32;;;5.80;;
6809;SDS011;3443;48.812;9.112;2022-11-11T08:26:25;10.65;;;6.88;;
6809;SDS011;3443;48.812;9.112;2022-11-11T08:28:51;8.48;;;5.43;;
6809;SDS011;3443;48.812;9.112;2022-11-11T08:31:17;9.82;;;5.22;;
6809;SDS011;3443;48.812;9.112;2022-11-11T08:33:43;5.10;;;4.35;;
6809;SDS011;3443;48.812;9.112;2022-11-11T08:36:09;5.03;;;4.15;;
6809;SDS011;3443;48.812;9.112;2022-11-11T08:38:35;4.95;;;4.03;;
6809;SDS011;3443;48.812;9.112;2022-11-11T08:41:02;4.63;;;4.13;;
6809;SDS011;3443;48.812;9.112;2022-11-11T08:43:29;5.75;;;4.88;;
6809;SDS011;3443;48.812;9.112;2022-11-11T08:45:58;4.88;;;4.00;;
6809;SDS011;3443;48.812;9.112;2022-11-11T08:48:25;5.38;;;4.88;;
6809;SDS011;3443;48.812;9.112;2022-11-11T08:50:51;6.18;;;5.57;;
6809;SDS011;3443;48.812;9.112;2022-11-11T08:53:17;7.18;;;5.18;;
6809;SDS011;3443;48.812;9.112;2022-11-11T08:55:44;6.05;;;4.78;;
6809;SDS011;3443;48.812;9.112;2022-11-11T08:58:10;8.43;;;5.20;;
6809;SDS011;3443;48.812;9.112;2022-11-11T09:00:37;12.15;;;4.75;;
6809;SDS011;3443;48.812;9.112;2022-11-11T09:03:05;5.60;;;4.90;;
6809;SDS011;3443;48.812;9.112;2022-11-11T09:05:32;13.43;;;4.85;;
6809;SDS011;3443;48.812;9.112;2022-11-11T09:08:01;7.60;;;4.75;;
6809;SDS011;3443;48.812;9.112;2022-11-11T09:10:30;8.27;;;5.00;;
6809;SDS011;3443;48.812;9.112;2022-11-11T09:12:56;8.23;;;4.80;;
6809;SDS011;3443;48.812;9.112;2022-11-11T09:15:23;8.05;;;4.40;;
6809;SDS011;3443;48.812;9.112;2022-11-11T09:17:48;9.35;;;4.57;;
6809;SDS011;3443;48.812;9.112;2022-11-11T09:20:14;5.55;;;3.53;;
6809;SDS011;3443;48.812;9.112;2022-11-11T09:22:41;5.78;;;3.90;;
6809;SDS011;3443;48.812;9.112;2022-11-11T09:25:08;4.68;;;3.50;;
6809;SDS011;3443;48.812;9.112;2022-11-11T09:27:34;6.05;;;3.63;;
6809;SDS011;3443;48.812;9.112;2022-11-11T09:29:59;3.78;;;3.35;;
6809;SDS011;3443;48.812;9.112;2022-11-11T09:32:25;6.40;;;3.53;;
6809;SDS011;3443;48.812;9.112;2022-11-11T09:34:50;4.07;;;3.67;;
6809;SDS011;3443;48.812;9.112;2022-11-11T09:37:16;4.07;;;3.67;;
6809;SDS011;3443;48.812;9.112;2022-11-11T09:39:42;4.43;;;3.28;;
6809;SDS011;3443;48.812;9.112;2022-11-11T09:50:30;4.28;;;3.75;;
6809;SDS011;3443;48.812;9.112;2022-11-11T09:53:00;7.43;;;3.70;;
6809;SDS011;3443;48.812;9.112;2022-11-11T09:55:32;5.20;;;3.80;;
6809;SDS011;3443;48.812;9.112;2022-11-11T09:58:14;6.30;;;3.45;;
6809;SDS011;3443;48.812;9.112;2022-11-11T10:00:44;5.78;;;3.03;;
6809;SDS011;3443;48.812;9.112;2022-11-11T10:03:14;4.45;;;3.38;;
6809;SDS011;3443;48.812;9.112;2022-11-11T10:09:02;3.90;;;3.20;;
6809;SDS011;3443;48.812;9.112;2022-11-11T10:14:12;3.72;;;2.95;;
6809;SDS011;3443;48.812;9.112;2022-11-11T10:16:47;3.20;;;2.90;;
6809;SDS011;3443;48.812;9.112;2022-11-11T10:21:51;5.50;;;3.67;;
6809;SDS011;3443;48.812;9.112;2022-11-11T10:24:24;6.45;;;3.58;;
6809;SDS011;3443;48.812;9.112;2022-11-11T10:26:58;3.83;;;3.28;;
6809;SDS011;3443;48.812;9.112;2022-11-11T10:29:29;4.00;;;3.08;;
6809;SDS011;3443;48.812;9.112;2022-11-11T10:32:03;4.57;;;3.53;;
6809;SDS011;3443;48.812;9.112;2022-11-11T10:34:36;6.90;;;4.18;;
6809;SDS011;3443;48.812;9.112;2022-11-11T10:37:02;4.53;;;4.07;;
6809;SDS011;3443;48.812;9.112;2022-11-11T10:42:13;5.70;;;3.53;;
6809;SDS011;3443;48.812;9.112;2022-11-11T10:44:41;5.60;;;3.28;;
6809;SDS011;3443;48.812;9.112;2022-11-11T10:47:18;7.72;;;3.00;;
6809;SDS011;3443;48.812;9.112;2022-11-11T10:50:13;5.32;;;3.42;;
6809;SDS011;3443;48.812;9.112;2022-11-11T10:52:44;4.05;;;3.35;;
6809;SDS011;3443;48.812;9.112;2022-11-11T10:58:24;3.85;;;3.47;;
6809;SDS011;3443;48.812;9.112;2022-11-11T11:01:11;4.13;;;3.40;;
6809;SDS011;3443;48.812;9.112;2022-11-11T11:03:41;5.05;;;3.30;;
6809;SDS011;3443;48.812;9.112;2022-11-11T11:06:13;5.50;;;3.53;;
6809;SDS011;3443;48.812;9.112;2022-11-11T11:09:01;6.07;;;3.67;;
6809;SDS011;3443;48.812;9.112;2022-11-11T11:11:55;3.70;;;3.10;;
6809;SDS011;3443;48.812;9.112;2022-11-11T11:14:41;5.97;;;3.65;;
6809;SDS011;3443;48.812;9.112;2022-11-11T11:17:21;7.68;;;3.35;;
6809;SDS011;3443;48.812;9.112;2022-11-11T11:22:51;4.20;;;3.80;;
6809;SDS011;3443;48.812;9.112;2022-11-11T11:25:23;5.53;;;3.53;;
6809;SDS011;3443;48.812;9.112;2022-11-11T11:27:50;3.78;;;3.40;;
6809;SDS011;3443;48.812;9.112;2022-11-11T11:30:18;3.92;;;3.63;;
6809;SDS011;3443;48.812;9.112;2022-11-11T11:33:02;5.88;;;3.35;;
6809;SDS011;3443;48.812;9.112;2022-11-11T11:37:57;3.75;;;3.45;;
6809;SDS011;3443;48.812;9.112;2022-11-11T11:40:22;6.95;;;3.63;;
6809;SDS011;3443;48.812;9.112;2022-11-11T11:42:48;6.65;;;3.50;;
6809;SDS011;3443;48.812;9.112;2022-11-11T11:45:24;7.00;;;3.90;;
6809;SDS011;3443;48.812;9.112;2022-11-11T12:05:15;5.88;;;3.22;;
6809;SDS011;3443;48.812;9.112;2022-11-11T12:13:07;4.43;;;4.03;;
6809;SDS011;3443;48.812;9.112;2022-11-11T12:15:51;5.40;;;3.65;;
6809;SDS011;3443;48.812;9.112;2022-11-11T12:21:22;6.88;;;4.20;;
6809;SDS011;3443;48.812;9.112;2022-11-11T12:29:07;4.30;;;3.13;;
6809;SDS011;3443;48.812;9.112;2022-11-11T12:42:13;6.18;;;3.50;;
6809;SDS011;3443;48.812;9.112;2022-11-11T12:59:24;4.30;;;3.97;;
6809;SDS011;3443;48.812;9.112;2022-11-11T13:02:19;9.70;;;4.22;;
6809;SDS011;3443;48.812;9.112;2022-11-11T13:05:12;7.18;;;3.78;;
6809;SDS011;3443;48.812;9.112;2022-11-11T13:07:51;4.30;;;3.97;;
6809;SDS011;3443;48.812;9.112;2022-11-11T13:10:43;8.77;;;3.70;;
6809;SDS011;3443;48.812;9.112;2022-11-11T13:13:29;4.65;;;4.18;;
6809;SDS011;3443;48.812;9.112;2022-11-11T13:16:19;7.10;;;4.20;;
6809;SDS011;3443;48.812;9.112;2022-11-11T13:18:50;5.07;;;3.53;;
6809;SDS011;3443;48.812;9.112;2022-11-11T13:21:23;9.02;;;3.95;;
6809;SDS011;3443;48.812;9.112;2022-11-11T13:23:58;3.72;;;3.15;;
6809;SDS011;3443;48.812;9.112;2022-11-11T13:26:28;4.40;;;3.13;;
6809;SDS011;3443;48.812;9.112;2022-11-11T13:29:15;4.85;;;3.53;;
6809;SDS011;3443;48.812;9.112;2022-11-11T13:31:53;6.20;;;3.20;;
6809;SDS011;3443;48.812;9.112;2022-11-11T13:34:19;6.22;;;2.97;;
6809;SDS011;3443;48.812;9.112;2022-11-11T13:36:50;6.05;;;3.47;;
6809;SDS011;3443;48.812;9.112;2022-11-11T13:41:53;7.90;;;3.38;;
6809;SDS011;3443;48.812;9.112;2022-11-11T13:45:04;6.28;;;3.42;;
6809;SDS011;3443;48.812;9.112;2022-11-11T13:47:19;4.57;;;3.28;;
6809;SDS011;3443;48.812;9.112;2022-11-11T13:58:05;5.05;;;2.97;;
6809;SDS011;3443;48.812;9.112;2022-11-11T14:00:35;9.00;;;3.38;;
6809;SDS011;3443;48.812;9.112;2022-11-11T14:03:35;4.32;;;3.35;;
6809;SDS011;3443;48.812;9.112;2022-11-11T14:06:33;3.28;;;2.95;;
6809;SDS011;3443;48.812;9.112;2022-11-11T14:08:53;3.13;;;2.80;;
6809;SDS011;3443;48.812;9.112;2022-11-11T14:13:51;3.15;;;2.90;;
6809;SDS011;3443;48.812;9.112;2022-11-11T14:24:32;4.75;;;3.70;;
6809;SDS011;3443;48.812;9.112;2022-11-11T14:26:59;4.22;;;3.10;;
6809;SDS011;3443;48.812;9.112;2022-11-11T14:29:52;3.75;;;2.95;;
6809;SDS011;3443;48.812;9.112;2022-11-11T14:40:37;3.75;;;3.45;;
6809;SDS011;3443;48.812;9.112;2022-11-11T14:45:59;5.82;;;3.58;;
6809;SDS011;3443;48.812;9.112;2022-11-11T14:52:14;3.85;;;3.10;;
6809;SDS011;3443;48.812;9.112;2022-11-11T14:54:16;4.93;;;3.15;;
6809;SDS011;3443;48.812;9.112;2022-11-11T14:56:56;3.38;;;2.92;;
6809;SDS011;3443;48.812;9.112;2022-11-11T14:59:25;3.60;;;2.58;;
6809;SDS011;3443;48.812;9.112;2022-11-11T15:01:53;5.63;;;3.30;;
6809;SDS011;3443;48.812;9.112;2022-11-11T15:04:19;4.03;;;3.40;;
6809;SDS011;3443;48.812;9.112;2022-11-11T15:06:58;3.75;;;3.10;;
6809;SDS011;3443;48.812;9.112;2022-11-11T15:09:32;3.95;;;3.10;;
6809;SDS011;3443;48.812;9.112;2022-11-11T15:12:18;5.63;;;3.47;;
6809;SDS011;3443;48.812;9.112;2022-11-11T15:15:18;9.50;;;3.88;;
6809;SDS011;3443;48.812;9.112;2022-11-11T15:17:58;5.63;;;3.55;;
6809;SDS011;3443;48.812;9.112;2022-11-11T15:26:46;5.72;;;2.83;;
6809;SDS011;3443;48.812;9.112;2022-11-11T15:38:10;4.72;;;3.92;;
6809;SDS011;3443;48.812;9.112;2022-11-11T15:40:45;7.07;;;3.80;;
6809;SDS011;3443;48.812;9.112;2022-11-11T15:43:17;2.83;;;2.53;;
6809;SDS011;3443;48.812;9.112;2022-11-11T15:46:03;5.38;;;2.50;;
6809;SDS011;3443;48.812;9.112;2022-11-11T15:48:41;2.60;;;2.22;;
6809;SDS011;3443;48.812;9.112;2022-11-11T15:51:21;4.53;;;3.03;;
6809;SDS011;3443;48.812;9.112;2022-11-11T15:53:50;2.90;;;2.70;;
6809;SDS011;3443;48.812;9.112;2022-11-11T15:56:29;3.63;;;3.33;;
6809;SDS011;3443;48.812;9.112;2022-11-11T15:58:56;4.80;;;3.55;;
6809;SDS011;3443;48.812;9.112;2022-11-11T16:01:25;5.38;;;3.20;;
6809;SDS011;3443;48.812;9.112;2022-11-11T16:03:52;2.90;;;2.60;;
6809;SDS011;3443;48.812;9.112;2022-11-11T16:06:19;3.13;;;2.45;;
6809;SDS011;3443;48.812;9.112;2022-11-11T16:08:46;4.88;;;2.35;;
6809;SDS011;3443;48.812;9.112;2022-11-11T16:11:15;4.97;;;2.50;;
6809;SDS011;3443;48.812;9.112;2022-11-11T16:13:47;4.82;;;2.55;;
6809;SDS011;3443;48.812;9.112;2022-11-11T16:18:51;4.00;;;2.58;;
6809;SDS011;3443;48.812;9.112;2022-11-11T16:21:23;2.85;;;2.33;;
6809;SDS011;3443;48.812;9.112;2022-11-11T16:23:54;2.33;;;2.17;;
6809;SDS011;3443;48.812;9.112;2022-11-11T16:26:20;4.50;;;2.55;;
6809;SDS011;3443;48.812;9.112;2022-11-11T16:28:51;3.25;;;2.70;;
6809;SDS011;3443;48.812;9.112;2022-11-11T16:34:22;2.60;;;2.40;;
6809;SDS011;3443;48.812;9.112;2022-11-11T16:37:06;4.18;;;2.58;;
6809;SDS011;3443;48.812;9.112;2022-11-11T16:39:33;2.75;;;2.42;;
6809;SDS011;3443;48.812;9.112;2022-11-11T16:42:00;3.92;;;2.90;;
6809;SDS011;3443;48.812;9.112;2022-11-11T16:46:53;5.57;;;2.90;;
6809;SDS011;3443;48.812;9.112;2022-11-11T16:49:21;3.08;;;2.80;;
6809;SDS011;3443;48.812;9.112;2022-11-11T16:51:52;3.70;;;3.08;;
6809;SDS011;3443;48.812;9.112;2022-11-11T16:54:20;4.35;;;2.85;;
6809;SDS011;3443;48.812;9.112;2022-11-11T16:56:50;4.55;;;3.35;;
6809;SDS011;3443;48.812;9.112;2022-11-11T16:59:53;2.90;;;2.70;;
6809;SDS011;3443;48.812;9.112;2022-11-11T17:02:17;3.55;;;2.92;;
6809;SDS011;3443;48.812;9.112;2022-11-11T17:04:49;3.78;;;2.80;;
6809;SDS011;3443;48.812;9.112;2022-11-11T17:07:30;4.80;;;2.60;;
6809;SDS011;3443;48.812;9.112;2022-11-11T17:12:32;3.38;;;2.90;;
6809;SDS011;3443;48.812;9.112;2022-11-11T17:14:59;3.45;;;3.15;;
6809;SDS011;3443;48.812;9.112;2022-11-11T17:17:25;3.00;;;2.80;;
6809;SDS011;3443;48.812;9.112;2022-11-11T17:19:54;3.33;;;3.00;;
6809;SDS011;3443;48.812;9.112;2022-11-11T17:22:37;4.05;;;2.63;;
6809;SDS011;3443;48.812;9.112;2022-11-11T17:25:11;3.70;;;3.30;;
6809;SDS011;3443;48.812;9.112;2022-11-11T17:27:36;3.45;;;3.15;;
6809;SDS011;3443;48.812;9.112;2022-11-11T17:30:02;3.97;;;2.85;;
6809;SDS011;3443;48.812;9.112;2022-11-11T17:32:28;3.25;;;3.00;;
6809;SDS011;3443;48.812;9.112;2022-11-11T17:34:53;4.60;;;3.60;;
6809;SDS011;3443;48.812;9.112;2022-11-11T17:37:19;2.95;;;2.75;;
6809;SDS011;3443;48.812;9.112;2022-11-11T17:39:45;4.95;;;3.10;;
6809;SDS011;3443;48.812;9.112;2022-11-11T17:42:10;5.25;;;3.28;;
6809;SDS011;3443;48.812;9.112;2022-11-11T17:44:36;4.40;;;3.33;;
6809;SDS011;3443;48.812;9.112;2022-11-11T17:47:02;3.70;;;3.40;;
6809;SDS011;3443;48.812;9.112;2022-11-11T17:49:27;5.72;;;3.33;;
6809;SDS011;3443;48.812;9.112;2022-11-11T17:51:53;3.25;;;2.97;;
6809;SDS011;3443;48.812;9.112;2022-11-11T17:54:18;3.63;;;3.22;;
6809;SDS011;3443;48.812;9.112;2022-11-11T17:56:44;4.18;;;3.30;;
6809;SDS011;3443;48.812;9.112;2022-11-11T17:59:10;3.28;;;2.97;;
6809;SDS011;3443;48.812;9.112;2022-11-11T18:01:36;4.88;;;3.13;;
6809;SDS011;3443;48.812;9.112;2022-11-11T18:04:01;3.08;;;2.88;;
6809;SDS011;3443;48.812;9.112;2022-11-11T18:06:29;4.32;;;3.22;;
6809;SDS011;3443;48.812;9.112;2022-11-11T18:08:55;3.00;;;2.80;;
6809;SDS011;3443;48.812;9.112;2022-11-11T18:11:21;3.45;;;3.15;;
6809;SDS011;3443;48.812;9.112;2022-11-11T18:13:46;4.43;;;3.00;;
6809;SDS011;3443;48.812;9.112;2022-11-11T18:16:12;9.23;;;3.80;;
6809;SDS011;3443;48.812;9.112;2022-11-11T18:18:40;4.28;;;3.58;;
6809;SDS011;3443;48.812;9.112;2022-11-11T18:21:05;3.30;;;3.10;;